Time;durP1;ratioP1;P1;durP2;ratioP2;P2;SDS_P1;SDS_P2;PMS_P1;PMS_P2;Temp;Humidity;BMP_temperature;BMP_pressure;BME280_temperature;BME280_humidity;BME280_pressure;Samples;Min_cycle;Max_cycle;Signal;HPM_P1;HPM_P2
2023/08/07 00:00:54;;;;;;;11.30;3.22;;;;;;;;;;5016338;28;20120;-73
2023/08/07 00:03:20;;;;;;;7.03;2.60;;;;;;;;;;4993130;28;20071;-73
2023/08/07 00:05:46;;;;;;;10.52;2.85;;;;;;;;;;5002294;28;20047;-73
2023/08/07 00:08:13;;;;;;;9.43;2.78;;;;;;;;;;4996426;28;20042;-73
2023/08/07 00:10:39;;;;;;;7.43;2.85;;;;;;;;;;4997456;28;20501;-74
2023/08/07 00:13:05;;;;;;;7.22;2.90;;;;;;;;;;5001355;28;20039;-73
2023/08/07 00:15:33;;;;;;;9.82;3.17;;;;;;;;;;5006072;28;20078;-74
2023/08/07 00:17:59;;;;;;;11.10;2.70;;;;;;;;;;4995201;28;20123;-73
2023/08/07 00:20:25;;;;;;;9.43;2.97;;;;;;;;;;4994197;28;20092;-73
2023/08/07 00:22:51;;;;;;;7.38;2.80;;;;;;;;;;4994401;28;20495;-73
2023/08/07 00:25:17;;;;;;;9.25;2.83;;;;;;;;;;5002058;28;20129;-73
2023/08/07 00:27:43;;;;;;;6.40;2.70;;;;;;;;;;4994931;28;20128;-73
2023/08/07 00:30:09;;;;;;;9.63;2.95;;;;;;;;;;4990730;28;20121;-73
2023/08/07 00:32:35;;;;;;;7.35;2.50;;;;;;;;;;4995347;28;20049;-73
2023/08/07 00:35:01;;;;;;;10.68;3.13;;;;;;;;;;4992938;28;20045;-73
2023/08/07 00:37:27;;;;;;;12.40;3.13;;;;;;;;;;4998194;28;20528;-73
2023/08/07 00:39:53;;;;;;;8.57;2.80;;;;;;;;;;4995693;28;20051;-73
2023/08/07 00:42:19;;;;;;;9.57;3.38;;;;;;;;;;4993159;28;20046;-72
2023/08/07 00:44:45;;;;;;;10.60;2.90;;;;;;;;;;5006383;28;20033;-73
2023/08/07 00:47:11;;;;;;;14.13;3.03;;;;;;;;;;4998510;28;20053;-73
2023/08/07 00:49:38;;;;;;;10.68;2.95;;;;;;;;;;4993639;28;20044;-72
2023/08/07 00:52:04;;;;;;;13.40;3.45;;;;;;;;;;4996512;28;20100;-73
2023/08/07 00:54:31;;;;;;;17.75;4.22;;;;;;;;;;4993254;28;20049;-73
2023/08/07 00:57:01;;;;;;;16.63;3.60;;;;;;;;;;4995399;28;20484;-73
2023/08/07 00:59:27;;;;;;;16.52;4.30;;;;;;;;;;5001437;28;20069;-73
2023/08/07 01:01:53;;;;;;;16.38;4.00;;;;;;;;;;4995703;28;20172;-73
2023/08/07 01:04:19;;;;;;;20.88;4.13;;;;;;;;;;5013993;28;20484;-73
2023/08/07 01:06:45;;;;;;;14.60;3.72;;;;;;;;;;5017868;28;20484;-73
2023/08/07 01:09:11;;;;;;;17.27;3.70;;;;;;;;;;5014030;28;20565;-73
2023/08/07 01:11:45;;;;;;;18.33;4.40;;;;;;;;;;5013587;28;20055;-74
2023/08/07 01:14:33;;;;;;;16.80;4.40;;;;;;;;;;5014709;28;20715;-73
2023/08/07 01:17:11;;;;;;;16.20;3.88;;;;;;;;;;4999541;28;20045;-73
2023/08/07 01:19:37;;;;;;;15.38;4.20;;;;;;;;;;5011684;28;20046;-73
2023/08/07 01:22:06;;;;;;;17.42;4.10;;;;;;;;;;5003709;28;20052;-73
2023/08/07 01:24:33;;;;;;;10.38;3.67;;;;;;;;;;4996447;28;20038;-72
2023/08/07 01:27:03;;;;;;;9.93;3.25;;;;;;;;;;5021921;28;20428;-73
2023/08/07 01:29:33;;;;;;;10.77;3.80;;;;;;;;;;5018396;28;20050;-73
2023/08/07 01:32:00;;;;;;;13.68;3.42;;;;;;;;;;5018512;28;20049;-73
2023/08/07 01:34:27;;;;;;;11.57;3.55;;;;;;;;;;5016109;28;20385;-73
2023/08/07 01:36:54;;;;;;;15.68;3.95;;;;;;;;;;5013761;28;20041;-73
2023/08/07 01:39:20;;;;;;;14.07;4.30;;;;;;;;;;4999871;28;20099;-73
2023/08/07 01:41:47;;;;;;;13.27;3.67;;;;;;;;;;5014646;28;20049;-73
2023/08/07 01:44:13;;;;;;;15.25;4.03;;;;;;;;;;4995086;28;20056;-73
2023/08/07 01:46:39;;;;;;;11.75;4.07;;;;;;;;;;4997669;28;20500;-73
2023/08/07 01:49:05;;;;;;;7.47;3.30;;;;;;;;;;5003675;28;20452;-73
2023/08/07 01:51:31;;;;;;;10.13;3.25;;;;;;;;;;4998018;28;20408;-73
2023/08/07 01:53:57;;;;;;;7.72;3.28;;;;;;;;;;5014930;28;20050;-73
2023/08/07 01:56:23;;;;;;;8.43;3.28;;;;;;;;;;5015998;28;20091;-73
2023/08/07 01:58:49;;;;;;;6.80;3.22;;;;;;;;;;5015109;28;20041;-73
2023/08/07 02:01:15;;;;;;;8.70;3.30;;;;;;;;;;5017211;28;20053;-73
2023/08/07 02:03:41;;;;;;;9.82;3.72;;;;;;;;;;5017496;28;20512;-74
2023/08/07 02:06:07;;;;;;;10.45;3.70;;;;;;;;;;5016776;28;20077;-74
2023/08/07 02:08:33;;;;;;;11.10;3.60;;;;;;;;;;4998347;28;20053;-73
2023/08/07 02:11:01;;;;;;;8.52;3.17;;;;;;;;;;5004626;28;20054;-73
2023/08/07 02:13:27;;;;;;;9.68;3.17;;;;;;;;;;5006246;28;20049;-74
2023/08/07 02:15:53;;;;;;;15.50;4.68;;;;;;;;;;5011749;28;20045;-74
2023/08/07 02:18:19;;;;;;;19.50;5.05;;;;;;;;;;5022209;28;20102;-74
2023/08/07 02:20:46;;;;;;;33.03;8.90;;;;;;;;;;5019301;28;20237;-73
2023/08/07 02:23:12;;;;;;;40.63;8.07;;;;;;;;;;5026748;28;20037;-73
2023/08/07 02:25:38;;;;;;;26.85;6.38;;;;;;;;;;5016542;28;20487;-73
2023/08/07 02:28:04;;;;;;;26.95;6.75;;;;;;;;;;5014950;28;20073;-73
2023/08/07 02:30:31;;;;;;;26.83;6.85;;;;;;;;;;5016812;28;20092;-73
2023/08/07 02:32:57;;;;;;;31.15;7.07;;;;;;;;;;5021119;28;20065;-73
2023/08/07 02:35:23;;;;;;;22.98;5.40;;;;;;;;;;5018859;28;20094;-73
2023/08/07 02:37:49;;;;;;;16.05;5.00;;;;;;;;;;5001788;28;20121;-73
2023/08/07 02:40:17;;;;;;;11.30;4.00;;;;;;;;;;4997396;28;20133;-73
2023/08/07 02:42:43;;;;;;;13.00;4.18;;;;;;;;;;5023069;28;20098;-73
2023/08/07 02:45:09;;;;;;;14.27;4.00;;;;;;;;;;4998683;28;20079;-73
2023/08/07 02:47:35;;;;;;;15.63;4.30;;;;;;;;;;5015542;28;20045;-73
2023/08/07 02:50:01;;;;;;;12.02;4.00;;;;;;;;;;5017767;28;20042;-73
2023/08/07 02:52:27;;;;;;;13.77;3.95;;;;;;;;;;4997990;28;20396;-74
2023/08/07 02:54:53;;;;;;;17.40;4.65;;;;;;;;;;5016794;28;20044;-73
2023/08/07 02:57:19;;;;;;;14.52;4.80;;;;;;;;;;5019729;28;20049;-73
2023/08/07 02:59:45;;;;;;;19.48;5.72;;;;;;;;;;5012836;28;20034;-73
2023/08/07 03:02:11;;;;;;;16.95;4.82;;;;;;;;;;5015677;28;20050;-73
2023/08/07 03:04:38;;;;;;;17.25;4.45;;;;;;;;;;5021898;28;20128;-73
2023/08/07 03:07:04;;;;;;;13.93;3.85;;;;;;;;;;5018057;28;20120;-73
2023/08/07 03:09:30;;;;;;;11.52;4.05;;;;;;;;;;5022318;28;20056;-73
2023/08/07 03:11:56;;;;;;;12.93;4.55;;;;;;;;;;5025448;28;20073;-73
2023/08/07 03:14:22;;;;;;;13.45;5.05;;;;;;;;;;4998516;28;20045;-74
2023/08/07 03:16:48;;;;;;;22.05;5.57;;;;;;;;;;4995054;28;20041;-74
2023/08/07 03:19:14;;;;;;;26.45;6.43;;;;;;;;;;4994540;28;20042;-73
2023/08/07 03:21:40;;;;;;;19.15;5.25;;;;;;;;;;5020891;28;20060;-74
2023/08/07 03:24:06;;;;;;;16.15;4.63;;;;;;;;;;5011066;28;20038;-74
2023/08/07 03:26:32;;;;;;;13.15;4.50;;;;;;;;;;5002446;28;20049;-74
2023/08/07 03:28:58;;;;;;;18.73;4.05;;;;;;;;;;5013899;28;20065;-73
2023/08/07 03:31:24;;;;;;;16.13;3.88;;;;;;;;;;4997527;28;20056;-73
2023/08/07 03:33:50;;;;;;;14.07;4.30;;;;;;;;;;4995030;28;20049;-74
2023/08/07 03:36:16;;;;;;;12.15;4.38;;;;;;;;;;5014398;28;20046;-73
2023/08/07 03:38:42;;;;;;;15.93;4.93;;;;;;;;;;5008974;28;20072;-74
2023/08/07 03:41:08;;;;;;;12.55;4.25;;;;;;;;;;4998520;28;20046;-74
2023/08/07 03:43:34;;;;;;;12.13;3.95;;;;;;;;;;5016139;28;20077;-74
2023/08/07 03:46:01;;;;;;;15.40;3.72;;;;;;;;;;5016511;28;20045;-74
2023/08/07 03:48:27;;;;;;;8.80;3.42;;;;;;;;;;4995684;28;20057;-74
2023/08/07 03:50:53;;;;;;;10.68;3.65;;;;;;;;;;5015316;28;20045;-73
2023/08/07 03:53:19;;;;;;;11.98;3.92;;;;;;;;;;5002848;28;20041;-74
2023/08/07 03:55:49;;;;;;;11.00;3.70;;;;;;;;;;5003134;28;20041;-74
2023/08/07 03:58:15;;;;;;;9.65;4.20;;;;;;;;;;5009627;28;20042;-74
2023/08/07 04:00:41;;;;;;;17.92;5.43;;;;;;;;;;5018385;28;20381;-74
2023/08/07 04:03:07;;;;;;;13.55;4.70;;;;;;;;;;5020981;28;20054;-74
2023/08/07 04:05:34;;;;;;;12.63;4.47;;;;;;;;;;5018685;28;20049;-74
2023/08/07 04:08:00;;;;;;;17.25;4.90;;;;;;;;;;5019692;28;20046;-74
2023/08/07 04:10:26;;;;;;;16.58;4.53;;;;;;;;;;5018265;28;20042;-75
2023/08/07 04:12:52;;;;;;;16.30;5.50;;;;;;;;;;4999081;28;20370;-74
2023/08/07 04:15:18;;;;;;;15.00;4.95;;;;;;;;;;4997696;28;20382;-74
2023/08/07 04:17:44;;;;;;;17.15;4.90;;;;;;;;;;5002282;28;20477;-73
2023/08/07 04:20:10;;;;;;;16.00;5.03;;;;;;;;;;5024803;28;20049;-74
2023/08/07 04:22:36;;;;;;;17.88;4.85;;;;;;;;;;5021569;28;20493;-74
2023/08/07 04:25:02;;;;;;;16.45;4.93;;;;;;;;;;4998387;28;20045;-74
2023/08/07 04:27:28;;;;;;;19.67;5.38;;;;;;;;;;5013483;28;20083;-74
2023/08/07 04:29:54;;;;;;;16.73;5.00;;;;;;;;;;5020542;28;20363;-73
2023/08/07 04:32:20;;;;;;;14.73;4.93;;;;;;;;;;5005724;28;20057;-73
2023/08/07 04:34:46;;;;;;;22.75;5.68;;;;;;;;;;4999852;28;20067;-73
2023/08/07 04:37:12;;;;;;;22.90;6.07;;;;;;;;;;5011018;28;20045;-74
2023/08/07 04:39:38;;;;;;;23.15;6.03;;;;;;;;;;5007802;28;20038;-74
2023/08/07 04:42:05;;;;;;;17.30;5.65;;;;;;;;;;5020145;28;20049;-75
2023/08/07 04:44:31;;;;;;;18.35;4.90;;;;;;;;;;5018009;28;20061;-75
2023/08/07 04:46:57;;;;;;;15.32;4.82;;;;;;;;;;5014225;28;20144;-75
2023/08/07 04:49:23;;;;;;;13.68;4.82;;;;;;;;;;4994186;28;20077;-74
2023/08/07 04:51:49;;;;;;;15.32;4.90;;;;;;;;;;5026596;28;20073;-75
2023/08/07 04:54:15;;;;;;;13.25;4.57;;;;;;;;;;5013401;28;20052;-74
2023/08/07 04:56:44;;;;;;;13.18;4.35;;;;;;;;;;5016207;28;20037;-74
2023/08/07 04:59:10;;;;;;;11.45;4.20;;;;;;;;;;5008416;28;20175;-74
2023/08/07 05:01:36;;;;;;;13.45;5.22;;;;;;;;;;5006260;28;20081;-75
2023/08/07 05:04:02;;;;;;;14.18;4.72;;;;;;;;;;5003856;28;20581;-74
2023/08/07 05:06:28;;;;;;;18.50;4.95;;;;;;;;;;4999787;28;20062;-74
2023/08/07 05:08:54;;;;;;;19.58;5.32;;;;;;;;;;5026392;28;20042;-74
2023/08/07 05:11:20;;;;;;;11.93;5.03;;;;;;;;;;5007868;28;20162;-74
2023/08/07 05:13:46;;;;;;;20.65;5.50;;;;;;;;;;5001913;28;20933;-74
2023/08/07 05:16:12;;;;;;;13.98;4.57;;;;;;;;;;5026135;28;20049;-74
2023/08/07 05:18:38;;;;;;;14.82;4.50;;;;;;;;;;5005156;28;20049;-74
2023/08/07 05:21:04;;;;;;;12.73;4.35;;;;;;;;;;5022868;28;20042;-74
2023/08/07 05:23:30;;;;;;;12.40;4.28;;;;;;;;;;4997834;28;20048;-74
2023/08/07 05:25:56;;;;;;;10.02;4.20;;;;;;;;;;5023267;28;20129;-74
2023/08/07 05:28:23;;;;;;;11.30;4.32;;;;;;;;;;4998970;28;20061;-74
2023/08/07 05:30:49;;;;;;;12.15;3.92;;;;;;;;;;4996364;28;20087;-74
2023/08/07 05:33:15;;;;;;;14.90;4.55;;;;;;;;;;5009053;28;20052;-74
2023/08/07 05:35:41;;;;;;;13.68;4.10;;;;;;;;;;5005072;28;20050;-74
2023/08/07 05:38:07;;;;;;;13.02;4.50;;;;;;;;;;5009489;28;20045;-73
2023/08/07 05:40:36;;;;;;;13.88;4.18;;;;;;;;;;5016665;28;20082;-74
2023/08/07 05:43:02;;;;;;;8.63;3.58;;;;;;;;;;5018189;28;20809;-74
2023/08/07 05:45:28;;;;;;;7.82;3.50;;;;;;;;;;5018846;28;20085;-73
2023/08/07 05:47:54;;;;;;;14.10;4.45;;;;;;;;;;5001729;28;20089;-75
2023/08/07 05:50:20;;;;;;;13.65;3.80;;;;;;;;;;5001133;28;20056;-74
2023/08/07 05:52:46;;;;;;;17.35;4.72;;;;;;;;;;5000735;28;20046;-74
2023/08/07 05:55:12;;;;;;;12.65;4.22;;;;;;;;;;5019154;28;20122;-74
2023/08/07 05:57:38;;;;;;;7.57;3.85;;;;;;;;;;5017417;28;20041;-75
2023/08/07 06:00:05;;;;;;;11.55;4.30;;;;;;;;;;5015356;28;20051;-75
2023/08/07 06:02:31;;;;;;;11.27;4.05;;;;;;;;;;4999447;28;20053;-74
2023/08/07 06:04:57;;;;;;;11.52;4.13;;;;;;;;;;5016791;28;20125;-74
2023/08/07 06:07:23;;;;;;;11.73;4.05;;;;;;;;;;5026027;28;20106;-75
2023/08/07 06:09:49;;;;;;;9.68;3.83;;;;;;;;;;5014057;28;20391;-75
2023/08/07 06:12:15;;;;;;;11.73;3.85;;;;;;;;;;5000027;28;20408;-75
2023/08/07 06:14:41;;;;;;;12.80;3.58;;;;;;;;;;5027532;28;20038;-74
2023/08/07 06:17:07;;;;;;;11.23;4.03;;;;;;;;;;5002893;28;20041;-75
2023/08/07 06:19:33;;;;;;;9.65;4.13;;;;;;;;;;4996082;28;20042;-74
2023/08/07 06:21:59;;;;;;;11.95;3.97;;;;;;;;;;5021812;28;20052;-74
2023/08/07 06:24:25;;;;;;;9.35;3.90;;;;;;;;;;5001770;28;20042;-75
2023/08/07 06:26:51;;;;;;;9.77;3.58;;;;;;;;;;5016439;28;20389;-75
2023/08/07 06:29:17;;;;;;;11.40;4.45;;;;;;;;;;5006338;28;20564;-74
2023/08/07 06:31:43;;;;;;;14.13;4.43;;;;;;;;;;4997879;28;20485;-75
2023/08/07 06:34:09;;;;;;;15.93;4.10;;;;;;;;;;4997942;28;20064;-74
2023/08/07 06:36:36;;;;;;;8.63;3.42;;;;;;;;;;5013944;28;20229;-74
2023/08/07 06:39:03;;;;;;;14.13;3.38;;;;;;;;;;5016892;28;20451;-75
2023/08/07 06:41:30;;;;;;;7.80;3.28;;;;;;;;;;5001146;28;20538;-75
2023/08/07 06:43:56;;;;;;;9.10;3.60;;;;;;;;;;5014464;28;20054;-75
2023/08/07 06:46:26;;;;;;;11.25;3.97;;;;;;;;;;4992716;28;20046;-75
2023/08/07 06:48:52;;;;;;;11.52;4.20;;;;;;;;;;5018406;28;20057;-74
2023/08/07 06:51:18;;;;;;;13.48;4.05;;;;;;;;;;5002240;28;20045;-74
2023/08/07 06:53:44;;;;;;;14.50;4.25;;;;;;;;;;5018723;28;20048;-73
2023/08/07 06:56:10;;;;;;;11.25;4.53;;;;;;;;;;5020105;28;20046;-74
2023/08/07 06:58:36;;;;;;;9.95;3.90;;;;;;;;;;4999757;28;20048;-74
2023/08/07 07:01:02;;;;;;;9.45;4.18;;;;;;;;;;5019784;28;20396;-74
2023/08/07 07:03:28;;;;;;;12.95;4.43;;;;;;;;;;5011281;28;20061;-74
2023/08/07 07:05:55;;;;;;;10.13;4.28;;;;;;;;;;5025852;28;20045;-74
2023/08/07 07:08:23;;;;;;;13.07;4.15;;;;;;;;;;5021783;28;20049;-74
2023/08/07 07:10:49;;;;;;;16.27;4.78;;;;;;;;;;5022332;28;20170;-74
2023/08/07 07:13:15;;;;;;;17.58;4.97;;;;;;;;;;5008470;28;20129;-74
2023/08/07 07:15:41;;;;;;;11.90;4.43;;;;;;;;;;5009648;28;20060;-74
2023/08/07 07:18:07;;;;;;;11.35;3.63;;;;;;;;;;5018359;28;20094;-75
2023/08/07 07:20:33;;;;;;;10.90;4.03;;;;;;;;;;5022562;28;20439;-74
2023/08/07 07:22:59;;;;;;;17.55;4.70;;;;;;;;;;5021224;28;20073;-74
2023/08/07 07:25:25;;;;;;;11.13;4.15;;;;;;;;;;5002702;28;20075;-74
2023/08/07 07:27:51;;;;;;;13.07;4.65;;;;;;;;;;5019614;28;20098;-74
2023/08/07 07:30:17;;;;;;;13.77;4.30;;;;;;;;;;5019132;28;20041;-74
2023/08/07 07:32:43;;;;;;;12.25;4.45;;;;;;;;;;5026862;28;20050;-74
2023/08/07 07:35:10;;;;;;;14.88;4.60;;;;;;;;;;5025598;28;20075;-75
2023/08/07 07:37:36;;;;;;;13.85;4.38;;;;;;;;;;5027350;28;20090;-74
2023/08/07 07:40:02;;;;;;;15.90;4.85;;;;;;;;;;5017988;28;20041;-74
2023/08/07 07:42:28;;;;;;;14.23;3.95;;;;;;;;;;5017840;28;20501;-73
2023/08/07 07:44:54;;;;;;;11.88;3.85;;;;;;;;;;5020930;28;20488;-74
2023/08/07 07:47:20;;;;;;;10.63;3.63;;;;;;;;;;4993902;28;20136;-74
2023/08/07 07:49:47;;;;;;;10.77;3.28;;;;;;;;;;5023348;28;20069;-73
2023/08/07 07:52:13;;;;;;;11.68;3.42;;;;;;;;;;5022897;28;20053;-73
2023/08/07 07:54:39;;;;;;;10.38;3.65;;;;;;;;;;5020340;28;20389;-74
2023/08/07 07:57:06;;;;;;;8.43;3.50;;;;;;;;;;5015350;28;20492;-74
2023/08/07 07:59:32;;;;;;;9.00;3.33;;;;;;;;;;5014852;28;20549;-73
2023/08/07 08:01:58;;;;;;;11.80;3.17;;;;;;;;;;4999979;28;20041;-74
2023/08/07 08:04:24;;;;;;;9.52;3.40;;;;;;;;;;4997853;28;20058;-74
2023/08/07 08:06:50;;;;;;;12.35;3.60;;;;;;;;;;5020044;28;20058;-74
2023/08/07 08:09:16;;;;;;;7.45;3.28;;;;;;;;;;5019196;28;20053;-74
2023/08/07 08:11:43;;;;;;;8.73;3.42;;;;;;;;;;5000082;28;20054;-74
2023/08/07 08:14:09;;;;;;;8.25;3.30;;;;;;;;;;5004102;28;20054;-74
2023/08/07 08:16:35;;;;;;;11.85;4.43;;;;;;;;;;5025062;28;20048;-74
2023/08/07 08:19:02;;;;;;;10.63;3.33;;;;;;;;;;5024863;28;20045;-74
2023/08/07 08:21:28;;;;;;;9.13;3.20;;;;;;;;;;4994009;28;20128;-73
2023/08/07 08:23:54;;;;;;;10.73;3.25;;;;;;;;;;5024705;28;20046;-74
2023/08/07 08:26:20;;;;;;;7.97;3.53;;;;;;;;;;5013528;28;20042;-73
2023/08/07 08:28:46;;;;;;;7.70;4.03;;;;;;;;;;5017144;28;20120;-73
2023/08/07 08:31:12;;;;;;;9.18;2.88;;;;;;;;;;5021318;28;20081;-73
2023/08/07 08:33:38;;;;;;;9.32;3.40;;;;;;;;;;5023380;28;20095;-73
2023/08/07 08:36:04;;;;;;;8.52;3.40;;;;;;;;;;5022526;28;20049;-74
2023/08/07 08:38:33;;;;;;;9.60;3.85;;;;;;;;;;4995234;28;20060;-73
2023/08/07 08:41:03;;;;;;;10.40;3.80;;;;;;;;;;5028187;28;20065;-73
2023/08/07 08:43:35;;;;;;;10.52;3.75;;;;;;;;;;5025378;28;20037;-73
2023/08/07 08:46:02;;;;;;;12.17;3.70;;;;;;;;;;5015549;28;20400;-74
2023/08/07 08:48:28;;;;;;;12.52;3.25;;;;;;;;;;5015027;28;20076;-73
2023/08/07 08:50:54;;;;;;;9.75;3.05;;;;;;;;;;5015408;28;20404;-73
2023/08/07 08:53:22;;;;;;;15.55;3.90;;;;;;;;;;5024021;28;20056;-73
2023/08/07 08:55:48;;;;;;;13.35;3.78;;;;;;;;;;5020315;28;20041;-73
2023/08/07 08:58:18;;;;;;;7.00;2.92;;;;;;;;;;5018240;28;20453;-73
2023/08/07 09:00:44;;;;;;;8.68;3.00;;;;;;;;;;5007804;28;20094;-73
2023/08/07 09:03:11;;;;;;;12.13;3.58;;;;;;;;;;5012968;28;20053;-73
2023/08/07 09:05:37;;;;;;;11.27;3.35;;;;;;;;;;5000073;28;20673;-73
2023/08/07 09:08:04;;;;;;;9.38;3.08;;;;;;;;;;5015853;28;20038;-74
2023/08/07 09:10:31;;;;;;;7.00;2.60;;;;;;;;;;4997902;28;20541;-73
2023/08/07 09:12:59;;;;;;;13.00;3.97;;;;;;;;;;5012358;28;20061;-73
2023/08/07 09:15:26;;;;;;;7.88;3.10;;;;;;;;;;5000219;28;20505;-74
2023/08/07 09:17:54;;;;;;;18.95;10.75;;;;;;;;;;5021811;28;20056;-73
2023/08/07 09:20:22;;;;;;;13.88;4.07;;;;;;;;;;5019782;28;20061;-72
2023/08/07 09:22:49;;;;;;;10.18;3.85;;;;;;;;;;5009372;28;20050;-73
2023/08/07 09:25:15;;;;;;;8.45;3.38;;;;;;;;;;5014018;28;20038;-73
2023/08/07 09:27:41;;;;;;;11.57;3.80;;;;;;;;;;5012204;28;20049;-73
2023/08/07 09:30:10;;;;;;;11.25;3.47;;;;;;;;;;5023828;28;20511;-73
2023/08/07 09:32:38;;;;;;;14.02;3.88;;;;;;;;;;5008153;28;20060;-73
2023/08/07 09:35:04;;;;;;;9.98;3.58;;;;;;;;;;5008521;28;20052;-73
2023/08/07 09:37:31;;;;;;;12.48;4.10;;;;;;;;;;4994773;28;20050;-73
2023/08/07 09:39:57;;;;;;;9.40;3.42;;;;;;;;;;5008927;28;20525;-73
2023/08/07 09:42:23;;;;;;;9.70;3.47;;;;;;;;;;5013410;28;20046;-73
2023/08/07 09:44:50;;;;;;;8.65;3.35;;;;;;;;;;5014801;28;20489;-73
2023/08/07 09:47:19;;;;;;;9.75;3.80;;;;;;;;;;5019914;28;20049;-73
2023/08/07 09:49:46;;;;;;;12.35;3.65;;;;;;;;;;5013392;28;20049;-73
2023/08/07 09:52:14;;;;;;;9.45;3.78;;;;;;;;;;5025418;28;20054;-73
2023/08/07 09:54:40;;;;;;;10.07;4.10;;;;;;;;;;5017052;28;20056;-72
2023/08/07 09:57:09;;;;;;;9.70;4.13;;;;;;;;;;5018297;28;20081;-73
2023/08/07 09:59:35;;;;;;;8.60;3.88;;;;;;;;;;5021449;28;20063;-73
2023/08/07 10:02:02;;;;;;;12.27;3.75;;;;;;;;;;5018641;28;20049;-73
2023/08/07 10:04:28;;;;;;;7.35;3.28;;;;;;;;;;5017070;28;20046;-73
2023/08/07 10:06:54;;;;;;;6.40;2.83;;;;;;;;;;5000387;28;20072;-73
2023/08/07 10:09:21;;;;;;;7.35;3.17;;;;;;;;;;5013731;28;20052;-73
2023/08/07 10:11:47;;;;;;;8.27;3.20;;;;;;;;;;5021174;28;20484;-73
2023/08/07 10:14:14;;;;;;;9.18;3.22;;;;;;;;;;5002804;28;20071;-73
2023/08/07 10:16:41;;;;;;;6.93;3.40;;;;;;;;;;5002173;28;20056;-73
2023/08/07 10:19:08;;;;;;;7.80;2.53;;;;;;;;;;5020340;28;20047;-72
2023/08/07 10:21:35;;;;;;;6.55;3.00;;;;;;;;;;5000706;28;20046;-72
2023/08/07 10:24:03;;;;;;;6.53;3.20;;;;;;;;;;5002063;28;20049;-73
2023/08/07 10:26:30;;;;;;;8.65;3.17;;;;;;;;;;5018107;28;20454;-72
2023/08/07 10:28:57;;;;;;;7.43;3.40;;;;;;;;;;5011359;28;20034;-73
2023/08/07 10:31:24;;;;;;;7.13;3.05;;;;;;;;;;5013360;28;20396;-72
2023/08/07 10:33:50;;;;;;;5.75;2.80;;;;;;;;;;5011840;28;20137;-72
2023/08/07 10:36:17;;;;;;;8.48;3.22;;;;;;;;;;5007574;28;20045;-72
2023/08/07 10:38:43;;;;;;;5.45;3.03;;;;;;;;;;5006651;28;20157;-72
2023/08/07 10:41:09;;;;;;;6.43;3.20;;;;;;;;;;4997592;28;20067;-72
2023/08/07 10:43:40;;;;;;;7.70;3.33;;;;;;;;;;5010192;28;20048;-73
2023/08/07 10:46:07;;;;;;;6.18;3.28;;;;;;;;;;4997160;28;20050;-73
2023/08/07 10:48:40;;;;;;;7.78;3.05;;;;;;;;;;5012643;28;20416;-73
2023/08/07 10:51:06;;;;;;;8.13;2.90;;;;;;;;;;5020918;28;20029;-73
2023/08/07 10:53:36;;;;;;;9.25;3.30;;;;;;;;;;5003625;28;20381;-72
2023/08/07 10:56:08;;;;;;;10.60;3.85;;;;;;;;;;5005970;28;20045;-73
2023/08/07 10:58:35;;;;;;;6.93;2.70;;;;;;;;;;5014815;28;20044;-73
2023/08/07 11:01:20;;;;;;;6.95;2.83;;;;;;;;;;5017685;28;20460;-73
2023/08/07 11:04:00;;;;;;;9.50;3.38;;;;;;;;;;5009660;28;20443;-73
2023/08/07 11:06:33;;;;;;;7.07;3.00;;;;;;;;;;5000797;28;20042;-73
2023/08/07 11:08:59;;;;;;;8.68;3.40;;;;;;;;;;4997436;28;20481;-73
2023/08/07 11:11:25;;;;;;;8.38;3.40;;;;;;;;;;5013813;28;20118;-72
2023/08/07 11:13:51;;;;;;;8.75;3.35;;;;;;;;;;5018618;28;20042;-72
2023/08/07 11:16:20;;;;;;;11.05;3.83;;;;;;;;;;5015133;28;20051;-72
2023/08/07 11:18:47;;;;;;;13.13;3.90;;;;;;;;;;5014154;28;20045;-72
2023/08/07 11:21:13;;;;;;;7.28;3.10;;;;;;;;;;5011669;28;20176;-70
2023/08/07 11:23:40;;;;;;;7.25;2.90;;;;;;;;;;5021039;28;20132;-73
2023/08/07 11:26:06;;;;;;;7.30;3.08;;;;;;;;;;4998188;28;20077;-73
2023/08/07 11:28:33;;;;;;;15.65;4.05;;;;;;;;;;5022146;28;20041;-72
2023/08/07 11:30:59;;;;;;;4.75;3.53;;;;;;;;;;4996548;28;20085;-73
2023/08/07 11:33:26;;;;;;;7.35;3.25;;;;;;;;;;5015827;28;20042;-73
2023/08/07 11:35:52;;;;;;;8.25;3.40;;;;;;;;;;5024418;28;20054;-73
2023/08/07 11:38:31;;;;;;;9.93;4.20;;;;;;;;;;5001955;28;20045;-73
2023/08/07 11:40:58;;;;;;;4.38;2.90;;;;;;;;;;5024820;28;20065;-72
2023/08/07 11:43:25;;;;;;;8.45;3.25;;;;;;;;;;5011268;28;20399;-72
2023/08/07 11:45:51;;;;;;;5.53;2.90;;;;;;;;;;5020962;28;20392;-72
2023/08/07 11:48:17;;;;;;;11.93;4.20;;;;;;;;;;5028931;28;20053;-73
2023/08/07 11:50:43;;;;;;;11.23;3.72;;;;;;;;;;5019951;28;20559;-72
2023/08/07 11:53:09;;;;;;;8.70;3.47;;;;;;;;;;5018993;28;20084;-72
2023/08/07 11:55:35;;;;;;;5.85;3.15;;;;;;;;;;5019569;28;20048;-72
2023/08/07 11:58:03;;;;;;;10.45;3.90;;;;;;;;;;5007437;28;20054;-73
2023/08/07 12:00:29;;;;;;;8.13;3.47;;;;;;;;;;5000518;28;20054;-72
2023/08/07 12:02:56;;;;;;;9.00;3.35;;;;;;;;;;5026849;28;20054;-72
2023/08/07 12:05:23;;;;;;;7.40;3.58;;;;;;;;;;5015865;28;20050;-72
2023/08/07 12:07:49;;;;;;;14.07;4.38;;;;;;;;;;5018923;28;20053;-72
2023/08/07 12:10:16;;;;;;;9.45;4.32;;;;;;;;;;5010337;28;20120;-71
2023/08/07 12:12:44;;;;;;;8.27;3.80;;;;;;;;;;5021730;28;20046;-73
2023/08/07 12:15:10;;;;;;;10.35;4.07;;;;;;;;;;5006706;28;20412;-73
2023/08/07 12:17:39;;;;;;;8.52;3.78;;;;;;;;;;5020417;28;20042;-73
2023/08/07 12:20:11;;;;;;;12.20;4.40;;;;;;;;;;5011576;28;20121;-72
2023/08/07 12:22:37;;;;;;;9.43;3.73;;;;;;;;;;5010076;28;20053;-73
2023/08/07 12:25:04;;;;;;;12.07;4.30;;;;;;;;;;5008248;28;20049;-72
2023/08/07 12:27:30;;;;;;;14.23;4.10;;;;;;;;;;5011859;28;20038;-73
2023/08/07 12:29:56;;;;;;;11.43;4.25;;;;;;;;;;5000018;28;20038;-72
2023/08/07 12:32:22;;;;;;;9.85;4.13;;;;;;;;;;5007658;28;20170;-72
2023/08/07 12:34:50;;;;;;;10.35;3.72;;;;;;;;;;5004035;28;20065;-72
2023/08/07 12:37:16;;;;;;;9.45;4.40;;;;;;;;;;4991369;28;20057;-72
2023/08/07 12:39:42;;;;;;;10.15;3.65;;;;;;;;;;4992638;28;20057;-73
2023/08/07 12:42:08;;;;;;;8.75;3.38;;;;;;;;;;5001323;28;20045;-72
2023/08/07 12:44:34;;;;;;;8.25;3.40;;;;;;;;;;5067515;28;20123;-72
2023/08/07 12:47:00;;;;;;;7.65;3.58;;;;;;;;;;5024444;28;20121;-72
2023/08/07 12:49:26;;;;;;;11.77;4.05;;;;;;;;;;5011357;28;20049;-72
2023/08/07 12:51:53;;;;;;;6.10;3.05;;;;;;;;;;4995631;28;20046;-72
2023/08/07 12:54:19;;;;;;;5.82;2.83;;;;;;;;;;5018296;28;20065;-72
2023/08/07 12:56:45;;;;;;;7.43;3.30;;;;;;;;;;5015980;28;20061;-72
2023/08/07 12:59:11;;;;;;;9.60;3.70;;;;;;;;;;4993481;28;20060;-72
2023/08/07 13:01:37;;;;;;;7.70;3.60;;;;;;;;;;5017184;28;20045;-73
2023/08/07 13:04:05;;;;;;;7.90;3.45;;;;;;;;;;5004202;28;20050;-73
2023/08/07 13:06:31;;;;;;;6.25;3.03;;;;;;;;;;4997317;28;22261;-72
2023/08/07 13:08:57;;;;;;;8.82;3.22;;;;;;;;;;4986994;28;20119;-72
2023/08/07 13:11:23;;;;;;;8.93;3.33;;;;;;;;;;5042842;28;20127;-72
2023/08/07 13:13:49;;;;;;;5.93;3.13;;;;;;;;;;5086780;28;20058;-72
2023/08/07 13:16:15;;;;;;;7.40;3.30;;;;;;;;;;5007831;28;20050;-72
2023/08/07 13:18:41;;;;;;;9.23;3.92;;;;;;;;;;4993237;28;20042;-73
2023/08/07 13:21:07;;;;;;;5.32;3.10;;;;;;;;;;4993865;28;20042;-73
2023/08/07 13:23:33;;;;;;;6.07;2.83;;;;;;;;;;4993372;28;20045;-72
2023/08/07 13:25:59;;;;;;;6.00;3.38;;;;;;;;;;4996953;28;20038;-73
2023/08/07 13:28:25;;;;;;;8.10;2.70;;;;;;;;;;5009812;28;20060;-73
2023/08/07 13:30:53;;;;;;;5.97;3.13;;;;;;;;;;5057866;28;20032;-72
2023/08/07 13:33:20;;;;;;;7.72;2.90;;;;;;;;;;4997260;28;20045;-73
2023/08/07 13:35:46;;;;;;;6.80;2.90;;;;;;;;;;5016781;28;20402;-73
2023/08/07 13:38:14;;;;;;;4.93;2.60;;;;;;;;;;4991076;28;20513;-73
2023/08/07 13:40:41;;;;;;;6.60;2.83;;;;;;;;;;5007529;28;20054;-73
2023/08/07 13:43:09;;;;;;;7.53;2.83;;;;;;;;;;5025810;28;20397;-73
2023/08/07 13:45:35;;;;;;;4.63;2.70;;;;;;;;;;5001799;28;20053;-73
2023/08/07 13:48:02;;;;;;;8.23;2.90;;;;;;;;;;5006638;28;20100;-73
2023/08/07 13:50:28;;;;;;;7.20;3.20;;;;;;;;;;5005778;28;20092;-73
2023/08/07 13:52:54;;;;;;;7.20;2.95;;;;;;;;;;4995702;28;20072;-73
2023/08/07 13:55:20;;;;;;;7.53;2.63;;;;;;;;;;5002490;28;20053;-73
2023/08/07 13:57:46;;;;;;;4.93;2.65;;;;;;;;;;5002151;28;20084;-73
2023/08/07 14:00:12;;;;;;;5.38;2.60;;;;;;;;;;5010678;28;20068;-73
2023/08/07 14:02:38;;;;;;;4.43;2.35;;;;;;;;;;5006982;28;20050;-73
2023/08/07 14:05:04;;;;;;;7.18;2.80;;;;;;;;;;5020982;28;20094;-73
2023/08/07 14:07:30;;;;;;;7.47;2.75;;;;;;;;;;5011678;28;20066;-71
2023/08/07 14:09:56;;;;;;;6.18;2.78;;;;;;;;;;5032424;28;20041;-71
2023/08/07 14:12:22;;;;;;;6.50;2.85;;;;;;;;;;4998482;28;20046;-70
2023/08/07 14:14:48;;;;;;;5.95;2.40;;;;;;;;;;5002737;28;20108;-71
2023/08/07 14:17:14;;;;;;;5.55;3.20;;;;;;;;;;5011753;28;20049;-70
2023/08/07 14:19:40;;;;;;;7.53;3.08;;;;;;;;;;5016223;28;20069;-71
2023/08/07 14:22:06;;;;;;;5.43;2.50;;;;;;;;;;5013886;28;20042;-71
2023/08/07 14:24:32;;;;;;;5.72;2.70;;;;;;;;;;5005424;28;20049;-71
2023/08/07 14:26:58;;;;;;;6.68;2.70;;;;;;;;;;5011094;28;20050;-71
2023/08/07 14:29:25;;;;;;;5.43;2.35;;;;;;;;;;5006630;28;20056;-70
2023/08/07 14:31:51;;;;;;;7.72;2.53;;;;;;;;;;5019895;28;20500;-71